Venus Seven — H9RN — position and weather

sailwx.info

Track history (hours):
 
Tides and Currents Weather Stations Pressure Air Temp Water Temp Dewpoint Dewpoint Depression Visibility Wind Speed Wind Dir Waves Ship Positions

Venus Seven

Last reported at 2015-Jul-27 14:09 UTC. Time now 2015-Jul-31 01:04 UTC.
Position N 33°57' E 134°56'.

Length 93 m; draft 5.6 m.

Type: Cargo ship. MMSI: 353405000.

Date/timePositionNaut miles runAvg speedWind from/ knotsBaromVisibWave heightAir tempDewpointWater temp
2015-Jul-27 14:09N 33°57' E 134°56'812.8
2015-Jul-27 13:33N 34°04' E 134°57'1313.2
2015-Jul-27 12:32N 34°18' E 134°58'1212.7
2015-Jul-27 11:33N 34°30' E 135°02'8 8.0
2015-Jul-27 10:33N 34°36' E 134°56'  
2015-Jul-24 10:24N 34°37' E 134°55'1011.4
2015-Jul-24 09:33N 34°36' E 135°06'1212.3
2015-Jul-24 08:33N 34°37' E 135°21'3 3.2
2015-Jul-24 07:33N 34°38' E 135°25'0 0.0
2015-Jul-24 06:33N 34°38' E 135°25'0 0.0
2015-Jul-24 05:27N 34°38' E 135°25'0 0.0
2015-Jul-24 04:33N 34°38' E 135°25'0 0.0
2015-Jul-24 03:33N 34°38' E 135°25'0 0.0
2015-Jul-24 02:33N 34°38' E 135°25'0 0.0
2015-Jul-24 01:33N 34°38' E 135°25'0 0.0
2015-Jul-24 00:33N 34°38' E 135°25'0 0.0
2015-Jul-23 23:33N 34°38' E 135°25'0 0.0
2015-Jul-23 22:27N 34°38' E 135°25'0 0.0
2015-Jul-23 21:33N 34°38' E 135°25'0 0.0
2015-Jul-23 20:33N 34°38' E 135°25'0 0.0
2015-Jul-23 19:33N 34°38' E 135°25'0 0.0
2015-Jul-23 18:33N 34°38' E 135°25'0 0.0
2015-Jul-23 17:32N 34°38' E 135°25'0 0.0
2015-Jul-23 16:32N 34°38' E 135°25'0 0.0
2015-Jul-23 15:26N 34°38' E 135°25'0 0.0
2015-Jul-23 14:26N 34°38' E 135°25'0 0.0
2015-Jul-23 13:20N 34°38' E 135°25'0 0.0
2015-Jul-23 12:32N 34°38' E 135°25'0 0.0
2015-Jul-23 11:32N 34°38' E 135°25'0 0.0
2015-Jul-23 10:32N 34°38' E 135°25'0 0.0
2015-Jul-23 09:32N 34°38' E 135°25'0 0.0
2015-Jul-23 08:32N 34°38' E 135°25'0 0.0
2015-Jul-23 07:32N 34°38' E 135°25'0 0.0
2015-Jul-23 06:20N 34°38' E 135°25'0 0.0
2015-Jul-23 05:32N 34°38' E 135°25'0 0.0
2015-Jul-23 04:32N 34°38' E 135°25'0 0.0
2015-Jul-23 03:32N 34°38' E 135°25'0 0.0
2015-Jul-23 02:32N 34°38' E 135°25'0 0.0
2015-Jul-23 01:32N 34°38' E 135°25'0 0.0
2015-Jul-23 00:32N 34°38' E 135°25'0 0.0
2015-Jul-22 23:32N 34°38' E 135°25'0 0.0
2015-Jul-22 22:26N 34°38' E 135°25'0 0.0
2015-Jul-22 21:08N 34°38' E 135°25'0 0.0
2015-Jul-22 20:32N 34°38' E 135°25'0 0.0
2015-Jul-22 19:32N 34°38' E 135°25'0 0.0
2015-Jul-22 18:32N 34°38' E 135°25'0 0.0
2015-Jul-22 17:32N 34°38' E 135°25'0 0.0
2015-Jul-22 16:26N 34°38' E 135°25'0 0.0
2015-Jul-22 15:32N 34°38' E 135°25'0 0.0
2015-Jul-22 14:32N 34°38' E 135°25'0 0.0
2015-Jul-22 13:14N 34°38' E 135°25'0 0.0
2015-Jul-22 12:26N 34°38' E 135°25'0 0.0
2015-Jul-22 11:32N 34°38' E 135°25'0 0.0
2015-Jul-22 10:26N 34°38' E 135°25'0 0.0
2015-Jul-22 09:32N 34°38' E 135°25'0 0.0
2015-Jul-22 08:25N 34°38' E 135°25'0 0.0
2015-Jul-22 07:25N 34°38' E 135°25'0 0.0
2015-Jul-22 06:31N 34°38' E 135°25'0 0.0
2015-Jul-22 05:31N 34°38' E 135°25'0 0.0
2015-Jul-22 04:19N 34°38' E 135°25'0 0.0
2015-Jul-22 03:31N 34°38' E 135°25'0 0.0
2015-Jul-22 02:31N 34°38' E 135°25'0 0.0
2015-Jul-22 01:31N 34°38' E 135°25'0 0.0
2015-Jul-22 00:31N 34°38' E 135°25'0 0.0
2015-Jul-21 23:31N 34°38' E 135°25'0 0.0
2015-Jul-21 22:25N 34°38' E 135°25'2 1.9
2015-Jul-21 21:33N 34°37' E 135°23'0 0.0
2015-Jul-21 18:17N 34°37' E 135°23'0 0.1
2015-Jul-21 17:29N 34°37' E 135°23'0 0.0
2015-Jul-21 16:29N 34°37' E 135°23'5 5.6
2015-Jul-21 15:33N 34°36' E 135°17'1211.4
2015-Jul-21 14:32N 34°36' E 135°03'9 9.0
2015-Jul-21 13:31N 34°34' E 134°52'  
Track history (hours):
 
Tides and Currents Weather Stations Pressure Air Temp Water Temp Dewpoint Dewpoint Depression Visibility Wind Speed Wind Dir Waves Ship Positions

Venus Seven

Last reported at 2015-Jul-27 14:09 UTC. Time now 2015-Jul-31 01:04 UTC.
Position N 33°57' E 134°56'.

Length 93 m; draft 5.6 m.

Type: Cargo ship. MMSI: 353405000.

Date/timePositionNaut miles runAvg speedWind from/ knotsBaromVisibWave heightAir tempDewpointWater temp
2015-Jul-27 14:09N 33°57' E 134°56'812.8
2015-Jul-27 13:33N 34°04' E 134°57'1313.2
2015-Jul-27 12:32N 34°18' E 134°58'1212.7
2015-Jul-27 11:33N 34°30' E 135°02'8 8.0
2015-Jul-27 10:33N 34°36' E 134°56'  
2015-Jul-24 10:24N 34°37' E 134°55'1011.4
2015-Jul-24 09:33N 34°36' E 135°06'1212.3
2015-Jul-24 08:33N 34°37' E 135°21'3 3.2
2015-Jul-24 07:33N 34°38' E 135°25'0 0.0
2015-Jul-24 06:33N 34°38' E 135°25'0 0.0
2015-Jul-24 05:27N 34°38' E 135°25'0 0.0
2015-Jul-24 04:33N 34°38' E 135°25'0 0.0
2015-Jul-24 03:33N 34°38' E 135°25'0 0.0
2015-Jul-24 02:33N 34°38' E 135°25'0 0.0
2015-Jul-24 01:33N 34°38' E 135°25'0 0.0
2015-Jul-24 00:33N 34°38' E 135°25'0 0.0
2015-Jul-23 23:33N 34°38' E 135°25'0 0.0
2015-Jul-23 22:27N 34°38' E 135°25'0 0.0
2015-Jul-23 21:33N 34°38' E 135°25'0 0.0
2015-Jul-23 20:33N 34°38' E 135°25'0 0.0
2015-Jul-23 19:33N 34°38' E 135°25'0 0.0
2015-Jul-23 18:33N 34°38' E 135°25'0 0.0
2015-Jul-23 17:32N 34°38' E 135°25'0 0.0
2015-Jul-23 16:32N 34°38' E 135°25'0 0.0
2015-Jul-23 15:26N 34°38' E 135°25'0 0.0
2015-Jul-23 14:26N 34°38' E 135°25'0 0.0
2015-Jul-23 13:20N 34°38' E 135°25'0 0.0
2015-Jul-23 12:32N 34°38' E 135°25'0 0.0
2015-Jul-23 11:32N 34°38' E 135°25'0 0.0
2015-Jul-23 10:32N 34°38' E 135°25'0 0.0
2015-Jul-23 09:32N 34°38' E 135°25'0 0.0
2015-Jul-23 08:32N 34°38' E 135°25'0 0.0
2015-Jul-23 07:32N 34°38' E 135°25'0 0.0
2015-Jul-23 06:20N 34°38' E 135°25'0 0.0
2015-Jul-23 05:32N 34°38' E 135°25'0 0.0
2015-Jul-23 04:32N 34°38' E 135°25'0 0.0
2015-Jul-23 03:32N 34°38' E 135°25'0 0.0
2015-Jul-23 02:32N 34°38' E 135°25'0 0.0
2015-Jul-23 01:32N 34°38' E 135°25'0 0.0
2015-Jul-23 00:32N 34°38' E 135°25'0 0.0
2015-Jul-22 23:32N 34°38' E 135°25'0 0.0
2015-Jul-22 22:26N 34°38' E 135°25'0 0.0
2015-Jul-22 21:08N 34°38' E 135°25'0 0.0
2015-Jul-22 20:32N 34°38' E 135°25'0 0.0
2015-Jul-22 19:32N 34°38' E 135°25'0 0.0
2015-Jul-22 18:32N 34°38' E 135°25'0 0.0
2015-Jul-22 17:32N 34°38' E 135°25'0 0.0
2015-Jul-22 16:26N 34°38' E 135°25'0 0.0
2015-Jul-22 15:32N 34°38' E 135°25'0 0.0
2015-Jul-22 14:32N 34°38' E 135°25'0 0.0
2015-Jul-22 13:14N 34°38' E 135°25'0 0.0
2015-Jul-22 12:26N 34°38' E 135°25'0 0.0
2015-Jul-22 11:32N 34°38' E 135°25'0 0.0
2015-Jul-22 10:26N 34°38' E 135°25'0 0.0
2015-Jul-22 09:32N 34°38' E 135°25'0 0.0
2015-Jul-22 08:25N 34°38' E 135°25'0 0.0
2015-Jul-22 07:25N 34°38' E 135°25'0 0.0
2015-Jul-22 06:31N 34°38' E 135°25'0 0.0
2015-Jul-22 05:31N 34°38' E 135°25'0 0.0
2015-Jul-22 04:19N 34°38' E 135°25'0 0.0
2015-Jul-22 03:31N 34°38' E 135°25'0 0.0
2015-Jul-22 02:31N 34°38' E 135°25'0 0.0
2015-Jul-22 01:31N 34°38' E 135°25'0 0.0
2015-Jul-22 00:31N 34°38' E 135°25'0 0.0
2015-Jul-21 23:31N 34°38' E 135°25'0 0.0
2015-Jul-21 22:25N 34°38' E 135°25'2 1.9
2015-Jul-21 21:33N 34°37' E 135°23'0 0.0
2015-Jul-21 18:17N 34°37' E 135°23'0 0.1
2015-Jul-21 17:29N 34°37' E 135°23'0 0.0
2015-Jul-21 16:29N 34°37' E 135°23'5 5.6
2015-Jul-21 15:33N 34°36' E 135°17'1211.4
2015-Jul-21 14:32N 34°36' E 135°03'9 9.0
2015-Jul-21 13:31N 34°34' E 134°52'  

Dump ship's entire track history